CFG3654 EDDL-LIMJ
Flight info
| Callsign | CFG3654 |
|---|---|
| Flight time | 1h 15m |
| Altitude | 37000 |
| Route | DODEN1T DODEN Y852 NATOR DCT TRA DCT RIPUS DCT GERSA DCT SOSON DCT ODINA DCT SRN M858 VOG |
| Aircraft | A320/M-SDE3FGHIJ1LORVWXYZ/SB1 |
Departure
| Time | 2026-04-19 06:08 |
|---|---|
| Airport | Düsseldorf Airport (EDDL) |
Arrival
| Time | 2026-04-19 07:24 |
|---|---|
| Airport | Genoa Cristoforo Colombo Airport (LIMJ) |
| Time | Latitude | Longitude | Altitude | Speed | Heading |
|---|---|---|---|---|---|
| 2026-04-19 05:37 | 51.27559 | 6.75759 | 131 ft | 0 kts | 243° |
| 2026-04-19 05:58 | 51.27566 | 6.75782 | 125 ft | 3 kts | 248° |
| 2026-04-19 05:58 | 51.27573 | 6.75819 | 126 ft | 3 kts | 264° |
| 2026-04-19 05:58 | 51.27572 | 6.75856 | 127 ft | 3 kts | 297° |
| 2026-04-19 05:58 | 51.27563 | 6.75874 | 127 ft | 0 kts | 333° |
| 2026-04-19 06:01 | 51.27570 | 6.75869 | 126 ft | 3 kts | 333° |
| 2026-04-19 06:02 | 51.27596 | 6.75847 | 128 ft | 6 kts | 333° |
| 2026-04-19 06:02 | 51.27645 | 6.75814 | 129 ft | 9 kts | 347° |
| 2026-04-19 06:02 | 51.27722 | 6.75810 | 130 ft | 13 kts | 0° |
| 2026-04-19 06:02 | 51.27829 | 6.75813 | 125 ft | 17 kts | 360° |
| 2026-04-19 06:03 | 51.27960 | 6.75819 | 129 ft | 17 kts | 3° |
| 2026-04-19 06:03 | 51.28063 | 6.75879 | 129 ft | 18 kts | 52° |
| 2026-04-19 06:03 | 51.28112 | 6.75983 | 125 ft | 20 kts | 52° |
| 2026-04-19 06:04 | 51.28201 | 6.76170 | 124 ft | 24 kts | 53° |
| 2026-04-19 06:04 | 51.28306 | 6.76390 | 124 ft | 22 kts | 52° |
| 2026-04-19 06:04 | 51.28407 | 6.76602 | 123 ft | 25 kts | 52° |
| 2026-04-19 06:04 | 51.28517 | 6.76832 | 127 ft | 27 kts | 52° |
| 2026-04-19 06:05 | 51.28631 | 6.77070 | 129 ft | 26 kts | 53° |
| 2026-04-19 06:05 | 51.28744 | 6.77309 | 129 ft | 28 kts | 52° |
| 2026-04-19 06:05 | 51.28854 | 6.77538 | 128 ft | 26 kts | 53° |
| 2026-04-19 06:05 | 51.28961 | 6.77762 | 128 ft | 25 kts | 53° |
| 2026-04-19 06:06 | 51.29067 | 6.77985 | 127 ft | 25 kts | 53° |
| 2026-04-19 06:06 | 51.29158 | 6.78177 | 135 ft | 15 kts | 52° |
| 2026-04-19 06:06 | 51.29224 | 6.78286 | 139 ft | 14 kts | 38° |
| 2026-04-19 06:06 | 51.29302 | 6.78374 | 143 ft | 14 kts | 36° |
| 2026-04-19 06:07 | 51.29372 | 6.78454 | 147 ft | 11 kts | 26° |
| 2026-04-19 06:07 | 51.29451 | 6.78463 | 149 ft | 12 kts | 355° |
| 2026-04-19 06:07 | 51.29491 | 6.78401 | 149 ft | 8 kts | 251° |
| 2026-04-19 06:07 | 51.29451 | 6.78327 | 146 ft | 15 kts | 230° |
| 2026-04-19 06:08 | 51.29239 | 6.77882 | 135 ft | 87 kts | 233° |
| 2026-04-19 06:08 | 51.28748 | 6.76848 | 126 ft | 143 kts | 232° |
| 2026-04-19 06:08 | 51.28062 | 6.75419 | 314 ft | 172 kts | 233° |
| 2026-04-19 06:08 | 51.27294 | 6.73860 | 832 ft | 185 kts | 234° |
| 2026-04-19 06:09 | 51.26499 | 6.72173 | 1425 ft | 196 kts | 238° |
| 2026-04-19 06:09 | 51.25682 | 6.70364 | 2024 ft | 208 kts | 239° |
| 2026-04-19 06:09 | 51.24794 | 6.68399 | 2437 ft | 229 kts | 238° |
| 2026-04-19 06:09 | 51.23807 | 6.66232 | 2812 ft | 253 kts | 238° |
| 2026-04-19 06:10 | 51.22554 | 6.64122 | 3499 ft | 272 kts | 214° |
| 2026-04-19 06:10 | 51.20720 | 6.63258 | 4351 ft | 281 kts | 185° |
| 2026-04-19 06:10 | 51.18756 | 6.63300 | 5300 ft | 284 kts | 176° |
| 2026-04-19 06:10 | 51.16791 | 6.63729 | 6199 ft | 288 kts | 166° |
| 2026-04-19 06:11 | 51.15010 | 6.65215 | 7031 ft | 293 kts | 138° |
| 2026-04-19 06:11 | 51.13739 | 6.67748 | 7852 ft | 294 kts | 115° |
| 2026-04-19 06:11 | 51.13167 | 6.70849 | 8637 ft | 295 kts | 91° |
| 2026-04-19 06:12 | 51.13333 | 6.77427 | 10222 ft | 303 kts | 84° |
| 2026-04-19 06:12 | 51.13472 | 6.80914 | 10618 ft | 322 kts | 84° |
| 2026-04-19 06:12 | 51.13621 | 6.84601 | 10843 ft | 346 kts | 85° |
| 2026-04-19 06:12 | 51.13775 | 6.88520 | 11222 ft | 361 kts | 85° |
| 2026-04-19 06:13 | 51.13926 | 6.92546 | 11872 ft | 367 kts | 86° |
| 2026-04-19 06:13 | 51.14072 | 6.96628 | 12578 ft | 372 kts | 86° |
| 2026-04-19 06:13 | 51.14218 | 7.00775 | 13268 ft | 377 kts | 87° |
| 2026-04-19 06:13 | 51.14365 | 7.04966 | 13941 ft | 382 kts | 88° |
| 2026-04-19 06:14 | 51.14511 | 7.09158 | 14550 ft | 386 kts | 88° |
| 2026-04-19 06:14 | 51.14661 | 7.13442 | 15190 ft | 389 kts | 88° |
| 2026-04-19 06:14 | 51.14813 | 7.17817 | 15835 ft | 392 kts | 89° |
| 2026-04-19 06:14 | 51.14960 | 7.22115 | 16452 ft | 395 kts | 89° |
| 2026-04-19 06:15 | 51.15109 | 7.26507 | 17078 ft | 399 kts | 89° |
| 2026-04-19 06:15 | 51.15258 | 7.30932 | 17693 ft | 402 kts | 90° |
| 2026-04-19 06:15 | 51.15392 | 7.35388 | 18319 ft | 404 kts | 93° |
| 2026-04-19 06:15 | 51.15127 | 7.39818 | 18871 ft | 400 kts | 107° |
| 2026-04-19 06:16 | 51.14306 | 7.44021 | 19456 ft | 396 kts | 118° |
| 2026-04-19 06:16 | 51.13026 | 7.47860 | 20052 ft | 391 kts | 128° |
| 2026-04-19 06:16 | 51.11333 | 7.51278 | 20661 ft | 386 kts | 139° |
| 2026-04-19 06:16 | 51.09438 | 7.54206 | 21239 ft | 386 kts | 141° |
| 2026-04-19 06:17 | 51.07470 | 7.57204 | 21812 ft | 387 kts | 141° |
| 2026-04-19 06:17 | 51.05548 | 7.60132 | 22359 ft | 389 kts | 141° |
| 2026-04-19 06:17 | 51.03560 | 7.63158 | 22888 ft | 391 kts | 141° |
| 2026-04-19 06:17 | 51.01590 | 7.66152 | 23406 ft | 393 kts | 141° |
| 2026-04-19 06:18 | 50.99608 | 7.69164 | 23867 ft | 395 kts | 141° |
| 2026-04-19 06:18 | 50.97616 | 7.72177 | 24265 ft | 397 kts | 142° |
| 2026-04-19 06:18 | 50.95453 | 7.74842 | 24635 ft | 394 kts | 151° |
| 2026-04-19 06:18 | 50.93878 | 7.76395 | 24884 ft | 395 kts | 152° |
| 2026-04-19 06:19 | 50.91535 | 7.78694 | 25244 ft | 398 kts | 152° |
| 2026-04-19 06:19 | 50.89175 | 7.81011 | 25592 ft | 400 kts | 152° |
| 2026-04-19 06:19 | 50.86771 | 7.83373 | 25946 ft | 402 kts | 152° |
| 2026-04-19 06:19 | 50.84387 | 7.85717 | 26298 ft | 404 kts | 152° |
| 2026-04-19 06:20 | 50.81992 | 7.88070 | 26620 ft | 407 kts | 152° |
| 2026-04-19 06:20 | 50.79543 | 7.90477 | 26932 ft | 410 kts | 152° |
| 2026-04-19 06:20 | 50.77078 | 7.92890 | 27238 ft | 413 kts | 152° |
| 2026-04-19 06:20 | 50.74624 | 7.95288 | 27532 ft | 416 kts | 152° |
| 2026-04-19 06:21 | 50.72155 | 7.97701 | 27809 ft | 419 kts | 152° |
| 2026-04-19 06:21 | 50.69668 | 8.00129 | 28091 ft | 422 kts | 152° |
| 2026-04-19 06:21 | 50.67164 | 8.02567 | 28377 ft | 424 kts | 152° |
| 2026-04-19 06:21 | 50.64646 | 8.05016 | 28648 ft | 427 kts | 152° |
| 2026-04-19 06:22 | 50.62050 | 8.07290 | 28910 ft | 426 kts | 159° |
| 2026-04-19 06:22 | 50.59282 | 8.08905 | 29170 ft | 424 kts | 168° |
| 2026-04-19 06:22 | 50.56403 | 8.09813 | 29424 ft | 422 kts | 177° |
| 2026-04-19 06:22 | 50.53429 | 8.10216 | 29677 ft | 423 kts | 179° |
| 2026-04-19 06:23 | 50.50486 | 8.10594 | 29930 ft | 426 kts | 179° |
| 2026-04-19 06:23 | 50.47528 | 8.10977 | 30161 ft | 428 kts | 179° |
| 2026-04-19 06:23 | 50.44561 | 8.11366 | 30383 ft | 429 kts | 179° |
| 2026-04-19 06:23 | 50.41583 | 8.11760 | 30646 ft | 429 kts | 179° |
| 2026-04-19 06:24 | 50.38571 | 8.12161 | 30896 ft | 430 kts | 179° |
| 2026-04-19 06:24 | 50.35585 | 8.12555 | 31133 ft | 431 kts | 179° |
| 2026-04-19 06:24 | 50.32596 | 8.12947 | 31367 ft | 432 kts | 179° |
| 2026-04-19 06:24 | 50.29555 | 8.13343 | 31599 ft | 432 kts | 180° |
| 2026-04-19 06:25 | 50.26558 | 8.13732 | 31846 ft | 433 kts | 180° |
| 2026-04-19 06:25 | 50.23547 | 8.14123 | 32094 ft | 434 kts | 180° |
| 2026-04-19 06:25 | 50.20539 | 8.14512 | 32369 ft | 435 kts | 180° |
| 2026-04-19 06:25 | 50.17518 | 8.14903 | 32625 ft | 436 kts | 180° |
| 2026-04-19 06:26 | 50.14494 | 8.15293 | 32864 ft | 436 kts | 180° |
| 2026-04-19 06:26 | 50.11470 | 8.15684 | 33096 ft | 437 kts | 180° |
| 2026-04-19 06:26 | 50.08432 | 8.16093 | 33341 ft | 438 kts | 180° |
| 2026-04-19 06:26 | 50.05394 | 8.16518 | 33578 ft | 439 kts | 180° |
| 2026-04-19 06:27 | 50.02351 | 8.16951 | 33819 ft | 440 kts | 180° |
| 2026-04-19 06:27 | 49.99464 | 8.17364 | 34064 ft | 440 kts | 180° |
| 2026-04-19 06:27 | 49.96446 | 8.17784 | 34275 ft | 441 kts | 180° |
| 2026-04-19 06:27 | 49.93386 | 8.18210 | 34484 ft | 441 kts | 180° |
| 2026-04-19 06:28 | 49.90326 | 8.18638 | 34710 ft | 442 kts | 180° |
| 2026-04-19 06:28 | 49.87263 | 8.19064 | 34936 ft | 442 kts | 180° |
| 2026-04-19 06:28 | 49.84193 | 8.19491 | 35153 ft | 443 kts | 180° |
| 2026-04-19 06:28 | 49.81129 | 8.19919 | 35356 ft | 443 kts | 180° |
| 2026-04-19 06:29 | 49.78059 | 8.20348 | 35540 ft | 443 kts | 180° |
| 2026-04-19 06:29 | 49.74981 | 8.20777 | 35720 ft | 444 kts | 180° |
| 2026-04-19 06:29 | 49.71906 | 8.21200 | 35893 ft | 444 kts | 180° |
| 2026-04-19 06:29 | 49.68828 | 8.21623 | 36064 ft | 445 kts | 180° |
| 2026-04-19 06:30 | 49.65744 | 8.22049 | 36237 ft | 445 kts | 180° |
| 2026-04-19 06:30 | 49.62656 | 8.22476 | 36393 ft | 445 kts | 180° |
| 2026-04-19 06:30 | 49.59574 | 8.22895 | 36563 ft | 446 kts | 180° |
| 2026-04-19 06:30 | 49.56522 | 8.23304 | 36717 ft | 446 kts | 180° |
| 2026-04-19 06:31 | 49.53391 | 8.23722 | 36868 ft | 446 kts | 180° |
| 2026-04-19 06:31 | 49.50291 | 8.24140 | 37052 ft | 446 kts | 179° |
| 2026-04-19 06:31 | 49.44082 | 8.24985 | 37130 ft | 449 kts | 179° |
| 2026-04-19 06:32 | 49.37816 | 8.25838 | 37128 ft | 449 kts | 179° |
| 2026-04-19 06:32 | 49.31584 | 8.26687 | 37126 ft | 450 kts | 179° |
| 2026-04-19 06:33 | 49.25390 | 8.27528 | 37114 ft | 450 kts | 179° |
| 2026-04-19 06:33 | 49.19073 | 8.28381 | 37106 ft | 450 kts | 180° |
| 2026-04-19 06:34 | 49.12835 | 8.29218 | 37092 ft | 450 kts | 180° |
| 2026-04-19 06:34 | 49.06555 | 8.30067 | 37095 ft | 450 kts | 180° |
| 2026-04-19 06:35 | 49.00321 | 8.30898 | 37100 ft | 450 kts | 180° |
| 2026-04-19 06:35 | 48.94087 | 8.31401 | 37109 ft | 447 kts | 184° |
| 2026-04-19 06:36 | 48.87873 | 8.31384 | 37116 ft | 446 kts | 185° |
| 2026-04-19 06:36 | 48.81664 | 8.31305 | 37119 ft | 447 kts | 185° |
| 2026-04-19 06:37 | 48.75444 | 8.31344 | 37113 ft | 447 kts | 184° |
| 2026-04-19 06:37 | 48.69219 | 8.31446 | 37115 ft | 447 kts | 184° |
| 2026-04-19 06:38 | 48.62987 | 8.31560 | 37110 ft | 448 kts | 184° |
| 2026-04-19 06:38 | 48.56704 | 8.31642 | 37105 ft | 448 kts | 185° |
| 2026-04-19 06:39 | 48.50469 | 8.31707 | 37100 ft | 448 kts | 184° |
| 2026-04-19 06:39 | 48.44233 | 8.31783 | 37095 ft | 448 kts | 184° |
| 2026-04-19 06:40 | 48.37994 | 8.31857 | 37101 ft | 449 kts | 185° |
| 2026-04-19 06:40 | 48.31751 | 8.31936 | 37096 ft | 448 kts | 184° |
| 2026-04-19 06:41 | 48.26489 | 8.32004 | 37098 ft | 448 kts | 184° |
| 2026-04-19 06:41 | 48.20247 | 8.32076 | 37089 ft | 448 kts | 185° |
| 2026-04-19 06:42 | 48.13966 | 8.32837 | 37090 ft | 454 kts | 175° |
| 2026-04-19 06:42 | 48.07728 | 8.34357 | 37090 ft | 454 kts | 175° |
| 2026-04-19 06:43 | 48.01457 | 8.35884 | 37086 ft | 454 kts | 176° |
| 2026-04-19 06:43 | 47.95224 | 8.37396 | 37087 ft | 454 kts | 176° |
| 2026-04-19 06:44 | 47.89086 | 8.38878 | 37092 ft | 454 kts | 176° |
| 2026-04-19 06:44 | 47.82856 | 8.40377 | 37096 ft | 454 kts | 176° |
| 2026-04-19 06:45 | 47.76616 | 8.41862 | 37104 ft | 454 kts | 176° |
| 2026-04-19 06:45 | 47.70385 | 8.43346 | 37112 ft | 454 kts | 176° |
| 2026-04-19 06:46 | 47.64097 | 8.44625 | 37125 ft | 452 kts | 179° |
| 2026-04-19 06:46 | 47.57838 | 8.45469 | 37131 ft | 451 kts | 180° |
| 2026-04-19 06:47 | 47.51590 | 8.46248 | 37133 ft | 451 kts | 180° |
| 2026-04-19 06:47 | 47.45345 | 8.47130 | 37129 ft | 451 kts | 179° |
| 2026-04-19 06:48 | 47.39098 | 8.48069 | 37126 ft | 451 kts | 179° |
| 2026-04-19 06:48 | 47.32849 | 8.49003 | 37124 ft | 451 kts | 179° |
| 2026-04-19 06:49 | 47.26598 | 8.49914 | 37119 ft | 451 kts | 179° |
| 2026-04-19 06:49 | 47.20351 | 8.50825 | 37122 ft | 452 kts | 179° |
| 2026-04-19 06:50 | 47.14048 | 8.51740 | 37141 ft | 452 kts | 179° |
| 2026-04-19 06:50 | 47.07793 | 8.52655 | 37158 ft | 452 kts | 179° |
| 2026-04-19 06:51 | 47.01496 | 8.53570 | 37153 ft | 451 kts | 180° |
| 2026-04-19 06:51 | 46.95242 | 8.54473 | 37163 ft | 452 kts | 180° |
| 2026-04-19 06:52 | 46.88938 | 8.55372 | 37157 ft | 451 kts | 179° |
| 2026-04-19 06:52 | 46.82648 | 8.56269 | 37147 ft | 453 kts | 179° |
| 2026-04-19 06:53 | 46.76332 | 8.57178 | 37132 ft | 452 kts | 180° |
| 2026-04-19 06:53 | 46.70027 | 8.58075 | 37126 ft | 452 kts | 179° |
| 2026-04-19 06:54 | 46.63762 | 8.58968 | 37119 ft | 453 kts | 180° |
| 2026-04-19 06:54 | 46.57485 | 8.59866 | 37122 ft | 453 kts | 180° |
| 2026-04-19 06:55 | 46.51214 | 8.60761 | 37116 ft | 453 kts | 180° |
| 2026-04-19 06:55 | 46.44899 | 8.61651 | 37108 ft | 452 kts | 180° |
| 2026-04-19 06:56 | 46.38627 | 8.62538 | 37101 ft | 453 kts | 180° |
| 2026-04-19 06:56 | 46.32346 | 8.63436 | 37102 ft | 454 kts | 180° |
| 2026-04-19 06:57 | 46.26019 | 8.64323 | 37102 ft | 454 kts | 180° |
| 2026-04-19 06:57 | 46.19728 | 8.65194 | 37101 ft | 455 kts | 179° |
| 2026-04-19 06:58 | 46.13431 | 8.66065 | 37101 ft | 455 kts | 179° |
| 2026-04-19 06:58 | 46.07138 | 8.67378 | 36908 ft | 460 kts | 174° |
| 2026-04-19 06:59 | 46.03998 | 8.68240 | 36642 ft | 459 kts | 174° |
| 2026-04-19 06:59 | 46.01876 | 8.68823 | 36468 ft | 459 kts | 174° |
| 2026-04-19 06:59 | 45.98741 | 8.69682 | 36203 ft | 459 kts | 174° |
| 2026-04-19 06:59 | 45.95866 | 8.70463 | 35970 ft | 459 kts | 174° |
| 2026-04-19 07:00 | 45.93543 | 8.71093 | 35778 ft | 460 kts | 175° |
| 2026-04-19 07:00 | 45.90401 | 8.71944 | 35522 ft | 460 kts | 174° |
| 2026-04-19 07:00 | 45.87210 | 8.72809 | 35181 ft | 461 kts | 175° |
| 2026-04-19 07:00 | 45.85629 | 8.73238 | 34685 ft | 465 kts | 175° |
| 2026-04-19 07:01 | 45.85135 | 8.73370 | 34531 ft | 466 kts | 175° |
| 2026-04-19 07:01 | 45.81932 | 8.74230 | 33513 ft | 471 kts | 175° |
| 2026-04-19 07:01 | 45.78707 | 8.75103 | 32531 ft | 473 kts | 175° |
| 2026-04-19 07:02 | 45.75463 | 8.75984 | 31447 ft | 477 kts | 175° |
| 2026-04-19 07:02 | 45.72114 | 8.76892 | 30479 ft | 479 kts | 175° |
| 2026-04-19 07:02 | 45.68815 | 8.77783 | 29807 ft | 472 kts | 175° |
| 2026-04-19 07:02 | 45.65604 | 8.78654 | 29109 ft | 466 kts | 174° |
| 2026-04-19 07:03 | 45.62350 | 8.79537 | 28433 ft | 460 kts | 174° |
| 2026-04-19 07:03 | 45.59222 | 8.80382 | 27776 ft | 455 kts | 174° |
| 2026-04-19 07:03 | 45.56082 | 8.81222 | 27126 ft | 450 kts | 174° |
| 2026-04-19 07:03 | 45.53059 | 8.82028 | 26470 ft | 446 kts | 174° |
| 2026-04-19 07:04 | 45.50021 | 8.82837 | 25849 ft | 442 kts | 173° |
| 2026-04-19 07:04 | 45.47009 | 8.83638 | 25227 ft | 439 kts | 173° |
| 2026-04-19 07:04 | 45.43979 | 8.84445 | 24606 ft | 436 kts | 173° |
| 2026-04-19 07:04 | 45.41014 | 8.85234 | 24019 ft | 432 kts | 173° |
| 2026-04-19 07:05 | 45.38065 | 8.86018 | 23391 ft | 429 kts | 172° |
| 2026-04-19 07:05 | 45.35112 | 8.86809 | 22823 ft | 424 kts | 173° |
| 2026-04-19 07:05 | 45.32230 | 8.87579 | 22291 ft | 418 kts | 173° |
| 2026-04-19 07:05 | 45.29389 | 8.88333 | 21795 ft | 414 kts | 173° |
| 2026-04-19 07:06 | 45.26573 | 8.89079 | 21310 ft | 409 kts | 173° |
| 2026-04-19 07:06 | 45.23788 | 8.89816 | 20828 ft | 405 kts | 173° |
| 2026-04-19 07:06 | 45.21031 | 8.90548 | 20350 ft | 402 kts | 173° |
| 2026-04-19 07:06 | 45.18292 | 8.91272 | 19854 ft | 399 kts | 173° |
| 2026-04-19 07:07 | 45.15576 | 8.91989 | 19358 ft | 396 kts | 173° |
| 2026-04-19 07:07 | 45.12832 | 8.92716 | 18850 ft | 394 kts | 173° |
| 2026-04-19 07:07 | 45.10136 | 8.93427 | 18331 ft | 393 kts | 173° |
| 2026-04-19 07:07 | 45.07491 | 8.94120 | 17779 ft | 391 kts | 173° |
| 2026-04-19 07:08 | 45.04826 | 8.94818 | 17254 ft | 388 kts | 173° |
| 2026-04-19 07:08 | 45.02145 | 8.95521 | 16733 ft | 386 kts | 173° |
| 2026-04-19 07:08 | 44.99515 | 8.96208 | 16218 ft | 383 kts | 173° |
| 2026-04-19 07:08 | 44.96899 | 8.96892 | 15724 ft | 381 kts | 173° |
| 2026-04-19 07:09 | 44.94306 | 8.97663 | 15136 ft | 382 kts | 168° |
| 2026-04-19 07:09 | 44.91747 | 8.98720 | 14571 ft | 384 kts | 165° |
| 2026-04-19 07:09 | 44.89223 | 8.99949 | 13984 ft | 385 kts | 162° |
| 2026-04-19 07:09 | 44.87134 | 9.01021 | 13450 ft | 385 kts | 162° |
| 2026-04-19 07:10 | 44.84768 | 9.02219 | 12955 ft | 381 kts | 163° |
| 2026-04-19 07:10 | 44.82274 | 9.03461 | 12453 ft | 377 kts | 163° |
| 2026-04-19 07:10 | 44.79813 | 9.04651 | 11938 ft | 372 kts | 163° |
| 2026-04-19 07:11 | 44.77363 | 9.05799 | 11371 ft | 369 kts | 164° |
| 2026-04-19 07:11 | 44.74936 | 9.06913 | 10949 ft | 362 kts | 164° |
| 2026-04-19 07:11 | 44.72591 | 9.07985 | 10834 ft | 347 kts | 164° |
| 2026-04-19 07:11 | 44.70339 | 9.09018 | 10704 ft | 334 kts | 164° |
| 2026-04-19 07:12 | 44.68174 | 9.10013 | 10582 ft | 322 kts | 164° |
| 2026-04-19 07:12 | 44.66084 | 9.10973 | 10456 ft | 311 kts | 164° |
| 2026-04-19 07:12 | 44.64063 | 9.11900 | 10265 ft | 302 kts | 164° |
| 2026-04-19 07:12 | 44.62077 | 9.12809 | 10009 ft | 299 kts | 164° |
| 2026-04-19 07:13 | 44.60111 | 9.13708 | 9694 ft | 296 kts | 164° |
| 2026-04-19 07:13 | 44.58159 | 9.14597 | 9285 ft | 294 kts | 164° |
| 2026-04-19 07:13 | 44.56214 | 9.15483 | 8920 ft | 292 kts | 164° |
| 2026-04-19 07:13 | 44.54294 | 9.16358 | 8525 ft | 289 kts | 164° |
| 2026-04-19 07:14 | 44.52385 | 9.17227 | 8156 ft | 288 kts | 164° |
| 2026-04-19 07:14 | 44.52163 | 9.17329 | 8087 ft | 288 kts | 163° |
| 2026-04-19 07:14 | 44.51643 | 9.17568 | 7880 ft | 292 kts | 163° |
| 2026-04-19 07:14 | 44.50821 | 9.17945 | 7542 ft | 297 kts | 163° |
| 2026-04-19 07:15 | 44.50008 | 9.18317 | 7222 ft | 301 kts | 163° |
| 2026-04-19 07:15 | 44.49107 | 9.18736 | 6875 ft | 305 kts | 163° |
| 2026-04-19 07:15 | 44.46728 | 9.19815 | 5926 ft | 315 kts | 163° |
| 2026-04-19 07:16 | 44.44614 | 9.20765 | 5296 ft | 319 kts | 163° |
| 2026-04-19 07:16 | 44.42547 | 9.21701 | 5112 ft | 305 kts | 163° |
| 2026-04-19 07:16 | 44.40584 | 9.22595 | 5078 ft | 287 kts | 163° |
| 2026-04-19 07:16 | 44.38704 | 9.23454 | 4576 ft | 286 kts | 163° |
| 2026-04-19 07:17 | 44.37492 | 9.24002 | 4348 ft | 285 kts | 163° |
| 2026-04-19 07:17 | 44.35653 | 9.24748 | 4292 ft | 261 kts | 173° |
| 2026-04-19 07:17 | 44.33998 | 9.24550 | 4285 ft | 226 kts | 204° |
| 2026-04-19 07:17 | 44.32847 | 9.23315 | 4241 ft | 202 kts | 238° |
| 2026-04-19 07:18 | 44.32470 | 9.21477 | 4189 ft | 201 kts | 274° |
| 2026-04-19 07:18 | 44.32867 | 9.19595 | 4178 ft | 205 kts | 292° |
| 2026-04-19 07:18 | 44.33474 | 9.17783 | 3911 ft | 207 kts | 295° |
| 2026-04-19 07:18 | 44.34089 | 9.15990 | 3840 ft | 203 kts | 292° |
| 2026-04-19 07:19 | 44.34604 | 9.14159 | 3809 ft | 203 kts | 288° |
| 2026-04-19 07:19 | 44.35031 | 9.12287 | 3777 ft | 202 kts | 284° |
| 2026-04-19 07:19 | 44.35397 | 9.10390 | 3684 ft | 202 kts | 284° |
| 2026-04-19 07:19 | 44.35785 | 9.08506 | 3514 ft | 202 kts | 285° |
| 2026-04-19 07:20 | 44.36218 | 9.06646 | 3307 ft | 197 kts | 288° |
| 2026-04-19 07:20 | 44.36652 | 9.04945 | 3116 ft | 177 kts | 289° |
| 2026-04-19 07:20 | 44.37094 | 9.03376 | 2832 ft | 171 kts | 291° |
| 2026-04-19 07:20 | 44.37559 | 9.01864 | 2470 ft | 169 kts | 292° |
| 2026-04-19 07:21 | 44.37963 | 9.00342 | 2144 ft | 163 kts | 286° |
| 2026-04-19 07:21 | 44.38243 | 8.98870 | 2013 ft | 151 kts | 284° |
| 2026-04-19 07:21 | 44.38499 | 8.97471 | 1815 ft | 148 kts | 284° |
| 2026-04-19 07:21 | 44.38765 | 8.96098 | 1542 ft | 145 kts | 286° |
| 2026-04-19 07:22 | 44.39037 | 8.94749 | 1314 ft | 144 kts | 287° |
| 2026-04-19 07:22 | 44.39309 | 8.93412 | 1083 ft | 142 kts | 287° |
| 2026-04-19 07:22 | 44.39589 | 8.92091 | 870 ft | 141 kts | 287° |
| 2026-04-19 07:22 | 44.39873 | 8.90775 | 662 ft | 141 kts | 288° |
| 2026-04-19 07:23 | 44.40137 | 8.89453 | 464 ft | 141 kts | 285° |
| 2026-04-19 07:23 | 44.40393 | 8.88130 | 339 ft | 141 kts | 286° |
| 2026-04-19 07:23 | 44.40659 | 8.86807 | 216 ft | 142 kts | 287° |
| 2026-04-19 07:23 | 44.40931 | 8.85483 | 41 ft | 141 kts | 286° |
| 2026-04-19 07:24 | 44.41171 | 8.84291 | 23 ft | 108 kts | 286° |
| 2026-04-19 07:24 | 44.41326 | 8.83507 | 21 ft | 59 kts | 285° |
| 2026-04-19 07:24 | 44.41396 | 8.83199 | 21 ft | 12 kts | 304° |
| 2026-04-19 07:24 | 44.41411 | 8.83171 | 21 ft | 1 kts | 310° |
| 2026-04-19 07:25 | 44.41414 | 8.83167 | 21 ft | 0 kts | 312° |
| 2026-04-19 07:25 | 44.41428 | 8.83147 | 21 ft | 3 kts | 315° |
| 2026-04-19 07:26 | 44.41444 | 8.83125 | 21 ft | 4 kts | 316° |
| 2026-04-19 07:26 | 44.41479 | 8.83093 | 21 ft | 8 kts | 338° |
| 2026-04-19 07:26 | 44.41536 | 8.83114 | 20 ft | 8 kts | 45° |
| 2026-04-19 07:26 | 44.41544 | 8.83184 | 20 ft | 9 kts | 101° |
| 2026-04-19 07:27 | 44.41520 | 8.83311 | 20 ft | 19 kts | 104° |
| 2026-04-19 07:27 | 44.41478 | 8.83523 | 20 ft | 25 kts | 107° |
| 2026-04-19 07:27 | 44.41426 | 8.83787 | 20 ft | 31 kts | 105° |
| 2026-04-19 07:27 | 44.41375 | 8.84049 | 20 ft | 25 kts | 105° |
| 2026-04-19 07:28 | 44.41334 | 8.84259 | 20 ft | 22 kts | 105° |
| 2026-04-19 07:28 | 44.41321 | 8.84412 | 20 ft | 15 kts | 64° |
| 2026-04-19 07:28 | 44.41396 | 8.84553 | 20 ft | 21 kts | 52° |
| 2026-04-19 07:28 | 44.41396 | 8.84722 | 21 ft | 20 kts | 104° |
| 2026-04-19 07:29 | 44.41356 | 8.84935 | 22 ft | 22 kts | 104° |
| 2026-04-19 07:29 | 44.41337 | 8.85060 | 20 ft | 8 kts | 89° |
| 2026-04-19 07:29 | 44.41380 | 8.85094 | 20 ft | 6 kts | 15° |
| 2026-04-19 07:29 | 44.41398 | 8.85101 | 20 ft | 2 kts | 15° |
| 2026-04-19 07:30 | 44.41406 | 8.85104 | 20 ft | 0 kts | 15° |